Time;durP1;ratioP1;P1;durP2;ratioP2;P2;SDS_P1;SDS_P2;PMS_P1;PMS_P2;Temp;Humidity;BMP_temperature;BMP_pressure;BME280_temperature;BME280_humidity;BME280_pressure;Samples;Min_cycle;Max_cycle;Signal;HPM_P1;HPM_P2
2022/04/04 00:01:19;;;;;;;7.28;3.22;;;3.30;99.90;;;;;;5121241;27;20551;-75
2022/04/04 00:03:45;;;;;;;8.75;3.10;;;3.20;99.90;;;;;;5101603;27;20043;-76
2022/04/04 00:06:10;;;;;;;4.65;3.03;;;3.00;99.90;;;;;;5103030;27;20047;-75
2022/04/04 00:08:36;;;;;;;9.02;3.20;;;3.00;99.90;;;;;;5109633;27;20181;-75
2022/04/04 00:11:02;;;;;;;10.15;3.45;;;3.00;99.90;;;;;;5085946;27;20043;-75
2022/04/04 00:13:28;;;;;;;6.78;3.10;;;3.00;99.90;;;;;;5086174;27;20181;-75
2022/04/04 00:15:57;;;;;;;6.03;3.17;;;3.00;99.90;;;;;;5103385;27;20111;-75
2022/04/04 00:18:22;;;;;;;7.45;3.50;;;3.00;99.90;;;;;;5103134;27;20403;-76
2022/04/04 00:20:49;;;;;;;6.60;3.22;;;3.00;99.90;;;;;;5103588;27;20168;-75
2022/04/04 00:23:16;;;;;;;7.53;3.58;;;3.00;99.90;;;;;;5107510;27;20406;-76
2022/04/04 00:25:43;;;;;;;5.05;3.60;;;3.00;99.90;;;;;;5102746;27;20699;-77
2022/04/04 00:28:09;;;;;;;5.85;3.45;;;3.00;99.90;;;;;;5084306;27;20099;-77
2022/04/04 00:30:36;;;;;;;6.22;3.17;;;3.10;99.90;;;;;;5104234;27;20034;-75
2022/04/04 00:33:03;;;;;;;6.00;3.38;;;3.10;99.90;;;;;;5100573;27;20517;-75
2022/04/04 00:35:29;;;;;;;4.68;2.92;;;3.10;99.90;;;;;;5086545;27;20034;-75
2022/04/04 00:37:57;;;;;;;7.97;3.35;;;3.10;99.90;;;;;;5111146;27;20088;-75
2022/04/04 00:40:23;;;;;;;6.88;3.08;;;3.10;99.90;;;;;;5104270;27;20101;-75
2022/04/04 00:42:49;;;;;;;11.27;3.63;;;3.10;99.90;;;;;;5086690;27;20118;-77
2022/04/04 00:45:14;;;;;;;5.25;3.22;;;3.10;99.90;;;;;;5099762;27;21032;-77
2022/04/04 00:47:40;;;;;;;4.45;3.03;;;3.20;99.90;;;;;;5104474;27;20047;-75
2022/04/04 00:50:06;;;;;;;7.82;3.58;;;3.10;99.90;;;;;;5070057;27;20035;-74
2022/04/04 00:52:33;;;;;;;5.93;3.22;;;3.20;99.90;;;;;;5099497;27;20066;-74
2022/04/04 00:54:58;;;;;;;5.93;3.25;;;3.20;99.90;;;;;;5111985;27;20141;-77
2022/04/04 00:57:24;;;;;;;5.57;3.25;;;3.30;99.90;;;;;;5106226;27;20130;-77
2022/04/04 00:59:50;;;;;;;5.63;3.60;;;3.30;99.90;;;;;;5093505;28;20039;-77
2022/04/04 01:02:16;;;;;;;7.18;3.78;;;3.30;99.90;;;;;;5102640;27;20040;-77
2022/04/04 01:04:42;;;;;;;6.32;4.72;;;3.80;99.90;;;;;;5101218;28;20080;-77
2022/04/04 01:07:08;;;;;;;8.57;3.95;;;3.30;99.90;;;;;;5089108;27;20039;-76
2022/04/04 01:09:34;;;;;;;6.82;4.32;;;3.40;99.90;;;;;;5102236;27;20047;-75
2022/04/04 01:12:06;;;;;;;8.35;4.65;;;3.40;99.90;;;;;;5107647;27;20027;-74
2022/04/04 01:14:34;;;;;;;9.25;4.70;;;3.40;99.90;;;;;;5108135;27;20078;-75
2022/04/04 01:17:00;;;;;;;9.70;5.00;;;3.50;99.90;;;;;;5107710;27;20078;-76
2022/04/04 01:19:25;;;;;;;8.60;5.10;;;3.60;99.90;;;;;;5114241;27;20078;-78
2022/04/04 01:21:51;;;;;;;9.25;5.50;;;3.60;99.90;;;;;;5107971;27;20046;-75
2022/04/04 01:24:21;;;;;;;8.93;5.47;;;3.60;99.90;;;;;;5092023;27;20043;-75
2022/04/04 01:26:48;;;;;;;10.18;5.72;;;3.60;99.90;;;;;;5087107;27;20051;-76
2022/04/04 01:29:13;;;;;;;9.60;6.13;;;3.70;99.90;;;;;;5112628;27;20185;-75
2022/04/04 01:31:39;;;;;;;10.65;6.78;;;3.70;99.90;;;;;;5124091;27;20477;-76
2022/04/04 01:34:05;;;;;;;9.85;6.32;;;3.70;99.90;;;;;;5108124;27;20038;-76
2022/04/04 01:36:31;;;;;;;10.23;6.78;;;3.80;99.90;;;;;;5109975;27;20046;-76
2022/04/04 01:38:56;;;;;;;12.20;8.23;;;3.90;99.90;;;;;;5107289;27;20116;-75
2022/04/04 01:41:22;;;;;;;10.77;7.68;;;3.80;99.90;;;;;;5110221;27;20043;-77
2022/04/04 01:43:47;;;;;;;17.77;8.35;;;3.80;99.90;;;;;;5103452;27;20435;-78
2022/04/04 01:46:26;;;;;;;12.45;7.97;;;3.90;99.90;;;;;;5110449;27;20166;-77
2022/04/04 01:48:53;;;;;;;13.18;8.25;;;3.90;99.90;;;;;;5087387;27;20031;-77
2022/04/04 01:51:20;;;;;;;15.55;8.35;;;4.00;99.90;;;;;;5085192;27;20070;-76
2022/04/04 01:53:46;;;;;;;18.48;9.57;;;4.20;99.90;;;;;;5110401;27;20138;-78
2022/04/04 01:56:12;;;;;;;17.05;10.55;;;4.00;99.90;;;;;;5108006;27;20130;-78
2022/04/04 01:58:39;;;;;;;16.90;10.35;;;4.10;99.90;;;;;;5083141;27;20049;-76
2022/04/04 02:01:13;;;;;;;16.52;10.98;;;4.10;99.90;;;;;;5087697;27;20038;-76
2022/04/04 02:03:39;;;;;;;16.55;10.73;;;4.10;99.90;;;;;;5089036;27;20107;-75
2022/04/04 02:06:05;;;;;;;16.00;11.45;;;4.10;99.90;;;;;;5091465;27;20035;-76
2022/04/04 02:08:32;;;;;;;17.63;10.82;;;4.20;99.90;;;;;;5098861;27;20117;-76
2022/04/04 02:10:58;;;;;;;19.48;12.13;;;4.20;99.90;;;;;;5090401;27;20066;-77
2022/04/04 02:13:25;;;;;;;15.88;10.95;;;4.20;99.90;;;;;;5091751;27;20573;-76
2022/04/04 02:15:57;;;;;;;16.90;11.52;;;4.30;99.90;;;;;;5090585;27;20138;-74
2022/04/04 02:18:23;;;;;;;17.70;11.32;;;4.20;99.90;;;;;;5105418;27;20039;-74
2022/04/04 02:20:49;;;;;;;16.60;9.93;;;4.30;99.90;;;;;;5103211;27;20031;-75
2022/04/04 02:23:18;;;;;;;18.02;10.18;;;4.20;99.90;;;;;;5086591;27;20132;-75
2022/04/04 02:25:44;;;;;;;16.13;10.35;;;4.20;99.90;;;;;;5102982;27;20041;-77
2022/04/04 02:28:11;;;;;;;18.50;10.63;;;4.20;99.90;;;;;;5086227;27;21926;-76
2022/04/04 02:30:37;;;;;;;14.50;10.57;;;4.30;99.90;;;;;;5129430;27;20384;-76
2022/04/04 02:33:03;;;;;;;15.82;12.15;;;4.20;99.90;;;;;;5091336;27;20061;-78
2022/04/04 02:35:29;;;;;;;15.13;10.75;;;4.20;99.90;;;;;;5109056;27;20371;-76
2022/04/04 02:37:55;;;;;;;15.98;11.80;;;4.20;99.90;;;;;;5122379;27;20050;-76
2022/04/04 02:40:21;;;;;;;17.92;11.15;;;4.10;99.90;;;;;;5106518;27;20415;-76
2022/04/04 02:42:48;;;;;;;18.10;10.98;;;4.20;99.90;;;;;;5104569;27;20051;-75
2022/04/04 02:45:14;;;;;;;18.58;10.68;;;4.20;99.90;;;;;;5110243;27;20092;-77
2022/04/04 02:47:41;;;;;;;17.42;11.32;;;4.20;99.90;;;;;;5106041;27;20087;-77
2022/04/04 02:50:08;;;;;;;21.55;11.75;;;4.30;99.90;;;;;;5104423;27;20055;-77
2022/04/04 02:52:34;;;;;;;16.20;11.40;;;4.30;99.90;;;;;;5087430;27;20058;-75
2022/04/04 02:56:28;;;;;;;22.88;12.52;;;4.30;99.90;;;;;;5106688;27;20035;-77
2022/04/04 02:57:45;;;;;;;17.73;10.80;;;4.30;99.90;;;;;;5104944;27;20118;-76
2022/04/04 03:00:11;;;;;;;19.33;12.10;;;4.30;99.90;;;;;;5107857;27;20455;-76
2022/04/04 03:02:37;;;;;;;18.00;10.57;;;4.30;99.90;;;;;;5112506;27;20450;-77
2022/04/04 03:05:03;;;;;;;18.65;12.10;;;4.30;99.90;;;;;;5126151;27;20065;-76
2022/04/04 03:07:28;;;;;;;19.30;12.25;;;4.40;99.90;;;;;;5089066;27;20439;-74
2022/04/04 03:09:54;;;;;;;18.00;11.75;;;4.40;99.90;;;;;;5088227;27;20486;-75
2022/04/04 03:12:19;;;;;;;19.83;10.98;;;4.40;99.90;;;;;;5110542;27;20043;-76
2022/04/04 03:14:45;;;;;;;18.95;11.95;;;4.40;99.90;;;;;;5104763;27;20066;-76
2022/04/04 03:17:11;;;;;;;24.60;12.27;;;4.40;99.90;;;;;;5118870;27;20092;-78
2022/04/04 03:19:36;;;;;;;16.98;11.63;;;4.50;99.90;;;;;;5110781;27;20039;-75
2022/04/04 03:22:02;;;;;;;16.98;11.98;;;4.50;99.90;;;;;;5089116;27;20602;-76
2022/04/04 03:24:29;;;;;;;17.77;12.05;;;4.50;99.90;;;;;;5085780;27;20482;-75
2022/04/04 03:26:54;;;;;;;18.90;10.60;;;4.60;99.90;;;;;;5099147;27;20093;-76
2022/04/04 03:29:20;;;;;;;20.30;12.43;;;4.60;99.90;;;;;;5106321;27;20035;-76
2022/04/04 03:31:46;;;;;;;19.27;12.13;;;4.60;99.90;;;;;;5087110;27;20181;-76
2022/04/04 03:34:12;;;;;;;18.33;11.57;;;4.70;99.90;;;;;;5102809;27;20046;-76
2022/04/04 03:36:37;;;;;;;20.40;11.05;;;4.60;99.90;;;;;;5088494;27;20065;-77
2022/04/04 03:39:03;;;;;;;20.27;13.15;;;4.70;99.90;;;;;;5089657;27;20054;-75
2022/04/04 03:41:29;;;;;;;18.33;12.48;;;4.70;99.90;;;;;;5096553;27;20103;-74
2022/04/04 03:43:55;;;;;;;28.50;12.77;;;4.70;99.90;;;;;;5090376;27;20410;-75
2022/04/04 03:46:20;;;;;;;24.88;12.52;;;4.70;99.90;;;;;;5106077;27;20941;-76
2022/04/04 03:48:46;;;;;;;20.98;12.93;;;4.70;99.90;;;;;;5097293;27;20054;-75
2022/04/04 03:51:12;;;;;;;25.17;14.35;;;4.70;99.90;;;;;;5108315;27;20046;-77
2022/04/04 03:53:38;;;;;;;24.90;13.02;;;4.60;99.90;;;;;;5094582;27;20083;-75
2022/04/04 03:56:04;;;;;;;24.55;14.20;;;4.70;99.90;;;;;;5097708;27;20039;-76
2022/04/04 03:58:30;;;;;;;24.13;13.95;;;4.70;99.90;;;;;;5096229;27;20070;-75
2022/04/04 04:00:57;;;;;;;26.13;14.57;;;4.60;99.90;;;;;;5086808;27;20348;-75
2022/04/04 04:03:22;;;;;;;24.23;11.90;;;4.60;99.90;;;;;;5101783;27;20141;-77
2022/04/04 04:05:48;;;;;;;25.88;14.10;;;4.60;99.90;;;;;;5085173;27;20351;-76
2022/04/04 04:08:14;;;;;;;26.92;13.52;;;4.70;99.90;;;;;;5107232;27;20047;-75
2022/04/04 04:10:39;;;;;;;22.48;14.18;;;4.70;99.90;;;;;;5094663;27;20062;-76
2022/04/04 04:13:05;;;;;;;22.42;14.40;;;4.70;99.90;;;;;;5083457;27;20129;-75
2022/04/04 04:15:31;;;;;;;26.85;14.80;;;4.70;99.90;;;;;;5108208;27;20529;-76
2022/04/04 04:17:57;;;;;;;26.50;14.73;;;5.10;99.90;;;;;;5108379;27;20046;-75
2022/04/04 04:20:23;;;;;;;23.48;13.50;;;4.70;99.90;;;;;;5091677;27;20355;-75
2022/04/04 04:22:52;;;;;;;31.70;15.20;;;4.70;99.90;;;;;;5084038;27;20078;-75
2022/04/04 04:25:19;;;;;;;16.52;12.23;;;4.60;99.90;;;;;;5091546;27;20031;-75
2022/04/04 04:27:46;;;;;;;29.02;15.95;;;4.70;99.90;;;;;;5106317;27;20087;-74
2022/04/04 04:30:13;;;;;;;27.13;15.80;;;4.80;99.90;;;;;;5085841;27;20165;-77
2022/04/04 04:32:41;;;;;;;26.83;14.93;;;4.70;99.90;;;;;;5105945;27;20035;-76
2022/04/04 04:35:08;;;;;;;34.75;16.48;;;4.70;99.90;;;;;;5102091;27;20039;-75
2022/04/04 04:37:34;;;;;;;24.10;13.75;;;4.80;99.90;;;;;;5087979;27;20051;-77
2022/04/04 04:39:59;;;;;;;29.08;15.55;;;5.00;99.90;;;;;;5101602;27;20031;-75
2022/04/04 04:42:25;;;;;;;23.38;15.27;;;4.90;99.90;;;;;;5083903;27;20069;-74
2022/04/04 04:44:51;;;;;;;24.95;15.55;;;4.80;99.90;;;;;;5081093;27;20047;-76
2022/04/04 04:47:18;;;;;;;27.98;15.27;;;4.90;99.90;;;;;;5084772;27;20042;-76
2022/04/04 04:49:45;;;;;;;24.92;13.23;;;4.90;99.90;;;;;;5080722;28;20118;-77
2022/04/04 04:52:11;;;;;;;23.52;13.13;;;4.80;99.90;;;;;;5081164;28;20042;-77
2022/04/04 04:54:37;;;;;;;25.35;14.65;;;4.90;99.90;;;;;;5100264;27;20096;-75
2022/04/04 04:57:03;;;;;;;27.35;15.30;;;4.90;99.90;;;;;;5121830;27;20039;-76
2022/04/04 04:59:29;;;;;;;25.33;14.00;;;4.90;99.90;;;;;;5098637;28;20129;-77
2022/04/04 05:01:54;;;;;;;20.45;13.73;;;4.80;99.90;;;;;;5086761;27;20121;-79
2022/04/04 05:04:20;;;;;;;26.35;14.88;;;4.80;99.90;;;;;;5097835;28;20040;-77
2022/04/04 05:06:49;;;;;;;22.02;13.85;;;4.80;99.90;;;;;;5103562;28;20117;-78
2022/04/04 05:09:17;;;;;;;28.40;14.93;;;4.90;99.90;;;;;;5097707;28;20051;-76
2022/04/04 05:11:43;;;;;;;25.15;15.25;;;4.90;99.90;;;;;;5082488;28;20126;-79
2022/04/04 05:14:15;;;;;;;22.45;14.18;;;4.90;99.90;;;;;;5104707;28;20035;-84
2022/04/04 05:16:42;;;;;;;28.20;15.07;;;4.90;99.90;;;;;;5100473;28;20095;-84
2022/04/04 05:19:08;;;;;;;27.65;10.23;;;5.00;99.90;;;;;;5119387;28;20070;-79
2022/04/04 05:21:34;;;;;;;21.98;10.48;;;5.10;99.90;;;;;;5104005;28;21046;-75
2022/04/04 05:24:00;;;;;;;23.67;11.60;;;5.10;99.90;;;;;;5102488;28;20039;-78
2022/04/04 05:26:25;;;;;;;19.67;9.40;;;5.10;99.90;;;;;;5104043;28;20039;-78
2022/04/04 05:28:52;;;;;;;17.77;9.20;;;5.10;99.90;;;;;;5100122;28;20049;-77
2022/04/04 05:31:17;;;;;;;16.55;9.77;;;5.10;99.90;;;;;;5074186;28;20070;-79
2022/04/04 05:33:43;;;;;;;19.98;9.35;;;5.00;99.90;;;;;;5102624;28;20110;-78
2022/04/04 05:36:09;;;;;;;16.30;8.20;;;4.90;99.90;;;;;;5101454;28;20038;-78
2022/04/04 05:38:34;;;;;;;21.20;10.45;;;5.00;99.90;;;;;;5081908;28;20062;-78
2022/04/04 05:41:01;;;;;;;16.98;9.25;;;5.00;99.90;;;;;;5099351;28;20079;-79
2022/04/04 05:43:27;;;;;;;15.15;8.60;;;5.00;99.90;;;;;;5087695;27;20091;-77
2022/04/04 05:45:53;;;;;;;15.68;7.80;;;5.10;99.90;;;;;;5105815;27;20488;-77
2022/04/04 05:48:19;;;;;;;13.10;7.32;;;5.00;99.90;;;;;;5096759;27;20035;-77
2022/04/04 05:50:44;;;;;;;13.90;7.70;;;5.00;99.90;;;;;;5086507;27;20089;-78
2022/04/04 05:53:10;;;;;;;14.82;8.68;;;5.00;99.90;;;;;;5086108;28;20039;-79
2022/04/04 05:55:36;;;;;;;14.60;7.43;;;4.90;99.90;;;;;;5088772;27;20078;-81
2022/04/04 05:58:02;;;;;;;17.20;9.05;;;5.00;99.90;;;;;;5086400;27;20047;-77
2022/04/04 06:00:28;;;;;;;12.88;6.45;;;4.90;99.90;;;;;;5102582;27;20042;-80
2022/04/04 06:02:53;;;;;;;9.10;4.80;;;4.90;99.90;;;;;;5091935;27;20034;-78
2022/04/04 06:05:19;;;;;;;6.97;4.47;;;4.90;99.90;;;;;;5088578;27;20134;-77
2022/04/04 06:07:45;;;;;;;7.97;4.45;;;4.80;99.90;;;;;;5107552;27;20366;-77
2022/04/04 06:10:13;;;;;;;10.02;4.50;;;4.90;99.90;;;;;;5108370;27;20035;-81
2022/04/04 06:12:43;;;;;;;10.30;3.72;;;4.80;99.90;;;;;;5090423;27;20031;-78
2022/04/04 06:15:14;;;;;;;9.52;4.28;;;4.70;99.90;;;;;;5127852;27;20340;-79
2022/04/04 06:17:41;;;;;;;10.32;4.82;;;4.70;99.90;;;;;;5125822;27;20119;-80
2022/04/04 06:20:08;;;;;;;10.02;2.75;;;4.90;99.90;;;;;;5110104;27;20039;-79
2022/04/04 06:22:39;;;;;;;7.95;2.65;;;4.60;99.90;;;;;;5093564;27;20039;-78
2022/04/04 06:25:07;;;;;;;8.85;2.78;;;4.70;99.90;;;;;;5089020;27;20043;-79
2022/04/04 06:27:33;;;;;;;6.68;3.22;;;4.60;99.90;;;;;;5104250;27;20045;-79
2022/04/04 06:29:59;;;;;;;7.53;3.60;;;4.60;99.90;;;;;;5085297;27;20125;-79
2022/04/04 06:32:26;;;;;;;7.53;3.70;;;4.70;99.90;;;;;;5106549;27;20110;-81
2022/04/04 06:34:51;;;;;;;9.88;3.47;;;4.60;99.90;;;;;;5105893;27;20051;-79
2022/04/04 06:37:17;;;;;;;7.57;3.40;;;4.60;99.90;;;;;;5089777;27;20035;-80
2022/04/04 06:39:43;;;;;;;10.63;3.70;;;4.60;99.90;;;;;;5103763;27;20035;-80
2022/04/04 06:42:09;;;;;;;9.45;3.58;;;4.60;99.90;;;;;;5081678;28;20127;-80
2022/04/04 06:44:35;;;;;;;6.38;3.47;;;4.80;99.90;;;;;;5090311;28;20165;-78
2022/04/04 06:47:00;;;;;;;7.40;2.55;;;4.60;99.90;;;;;;5105239;27;20058;-79
2022/04/04 06:49:26;;;;;;;7.75;3.45;;;4.60;99.90;;;;;;5101366;27;20044;-77
2022/04/04 06:51:52;;;;;;;9.98;3.38;;;4.90;99.90;;;;;;5105414;28;20420;-79
2022/04/04 06:54:19;;;;;;;5.28;3.25;;;4.70;99.90;;;;;;5103078;28;20054;-77
2022/04/04 06:56:49;;;;;;;11.02;4.07;;;4.70;99.90;;;;;;5100434;27;20041;-80
2022/04/04 06:59:17;;;;;;;8.18;3.58;;;4.70;99.90;;;;;;5099931;28;20036;-84
2022/04/04 07:01:43;;;;;;;8.27;3.22;;;4.80;99.90;;;;;;5102427;28;20355;-85
2022/04/04 07:04:10;;;;;;;9.25;3.67;;;4.70;99.90;;;;;;5086560;28;20123;-77
2022/04/04 07:06:36;;;;;;;7.80;4.00;;;4.70;99.90;;;;;;5108855;28;20036;-77
2022/04/04 07:09:02;;;;;;;8.80;4.32;;;4.80;99.90;;;;;;5107153;28;20075;-78
2022/04/04 07:11:29;;;;;;;14.27;4.70;;;4.80;99.90;;;;;;5110722;28;20460;-78
2022/04/04 07:13:56;;;;;;;10.80;5.45;;;4.80;99.90;;;;;;5094537;28;20036;-78
2022/04/04 07:16:21;;;;;;;11.27;5.50;;;4.80;99.90;;;;;;5108854;28;20035;-78
2022/04/04 07:18:48;;;;;;;9.45;6.00;;;4.90;99.90;;;;;;5109264;28;21023;-78
2022/04/04 07:21:15;;;;;;;11.50;6.60;;;5.00;99.90;;;;;;5110472;28;20043;-78
2022/04/04 07:23:41;;;;;;;12.07;6.50;;;5.10;99.90;;;;;;5091268;28;20138;-77
2022/04/04 07:26:07;;;;;;;8.60;5.75;;;5.10;99.90;;;;;;5093271;28;20031;-78
2022/04/04 07:28:33;;;;;;;14.40;6.35;;;5.00;99.90;;;;;;5108153;28;20038;-78
2022/04/04 07:31:00;;;;;;;12.02;7.18;;;5.20;99.90;;;;;;5105220;28;20073;-78
2022/04/04 07:33:25;;;;;;;11.95;6.85;;;5.10;99.90;;;;;;5101333;27;20100;-78
2022/04/04 07:35:51;;;;;;;15.23;6.57;;;5.20;99.90;;;;;;5125464;27;20040;-79
2022/04/04 07:38:17;;;;;;;15.40;7.95;;;5.10;99.90;;;;;;5082890;28;20048;-78
2022/04/04 07:40:43;;;;;;;10.95;6.20;;;5.30;99.90;;;;;;5105120;27;20056;-78
2022/04/04 07:43:08;;;;;;;18.27;7.53;;;5.60;99.90;;;;;;5106502;27;20040;-78
2022/04/04 07:45:36;;;;;;;14.25;7.40;;;4.90;99.90;;;;;;5088870;28;20114;-77
2022/04/04 07:48:03;;;;;;;19.92;7.20;;;5.40;99.90;;;;;;5100383;27;20065;-78
2022/04/04 07:50:30;;;;;;;13.30;7.20;;;5.40;99.90;;;;;;5102855;27;20044;-82
2022/04/04 07:52:56;;;;;;;13.27;6.22;;;5.50;99.90;;;;;;5108614;27;20039;-75
2022/04/04 07:55:22;;;;;;;13.35;7.25;;;5.50;99.90;;;;;;5110347;28;20054;-74
2022/04/04 07:57:48;;;;;;;10.10;6.45;;;5.50;99.90;;;;;;5109362;28;20028;-76
2022/04/04 08:00:17;;;;;;;9.98;6.20;;;5.50;99.90;;;;;;5111022;28;20085;-77
2022/04/04 08:02:44;;;;;;;18.92;7.50;;;5.50;99.90;;;;;;5109302;28;20471;-77
2022/04/04 08:05:10;;;;;;;10.10;6.05;;;5.60;99.90;;;;;;5093900;28;20040;-77
2022/04/04 08:07:37;;;;;;;14.48;6.53;;;5.60;99.90;;;;;;5091304;28;20062;-76
2022/04/04 08:10:04;;;;;;;9.43;5.75;;;5.70;99.90;;;;;;5091543;28;20119;-76
2022/04/04 08:12:30;;;;;;;8.65;5.40;;;5.60;99.90;;;;;;5087917;28;20459;-75
2022/04/04 08:14:56;;;;;;;13.55;7.03;;;5.70;99.90;;;;;;5088174;28;20180;-75
2022/04/04 08:17:22;;;;;;;13.90;6.43;;;5.70;99.90;;;;;;5085342;28;20051;-76
2022/04/04 08:19:50;;;;;;;8.27;5.50;;;5.80;99.90;;;;;;5105391;28;20055;-75
2022/04/04 08:22:16;;;;;;;16.30;6.60;;;5.80;99.90;;;;;;5099543;28;20183;-76
2022/04/04 08:24:42;;;;;;;13.23;5.78;;;5.80;99.90;;;;;;5103300;28;20065;-76
2022/04/04 08:27:10;;;;;;;7.45;5.32;;;5.80;99.90;;;;;;5088341;28;20119;-76
2022/04/04 08:29:37;;;;;;;10.70;5.32;;;5.80;99.90;;;;;;5112737;27;20059;-76
2022/04/04 08:32:04;;;;;;;7.57;3.47;;;5.80;99.90;;;;;;5092806;28;20027;-81
2022/04/04 08:34:30;;;;;;;9.07;4.13;;;6.00;99.90;;;;;;5113457;27;20410;-77
2022/04/04 08:36:56;;;;;;;8.18;4.40;;;6.20;99.90;;;;;;5113259;27;20209;-75
2022/04/04 08:39:21;;;;;;;8.40;5.15;;;5.90;99.90;;;;;;5108773;28;20403;-77
2022/04/04 08:41:48;;;;;;;9.35;5.35;;;6.00;99.90;;;;;;5108883;28;20405;-76
2022/04/04 08:44:15;;;;;;;17.00;10.05;;;6.00;99.90;;;;;;5092297;28;20048;-74
2022/04/04 08:46:42;;;;;;;14.48;7.85;;;6.00;99.90;;;;;;5092289;28;20069;-75
2022/04/04 08:49:08;;;;;;;7.70;3.97;;;6.00;99.90;;;;;;5108843;28;20070;-75
2022/04/04 08:51:35;;;;;;;7.88;4.30;;;6.10;99.90;;;;;;5099976;28;20491;-75
2022/04/04 08:54:01;;;;;;;16.48;10.45;;;6.10;99.90;;;;;;5112242;28;20053;-76
2022/04/04 08:56:27;;;;;;;12.95;7.20;;;6.10;99.90;;;;;;5112571;27;20313;-79
2022/04/04 08:58:54;;;;;;;33.25;16.65;;;6.20;99.90;;;;;;5116656;28;20447;-78
2022/04/04 09:01:22;;;;;;;12.00;8.43;;;6.10;99.90;;;;;;5091879;28;20118;-79
2022/04/04 09:04:11;;;;;;;9.98;7.28;;;6.20;99.90;;;;;;5093923;28;20161;-79
2022/04/04 09:06:48;;;;;;;8.23;4.70;;;6.30;99.90;;;;;;5093805;28;20040;-79
2022/04/04 09:09:21;;;;;;;8.90;3.85;;;6.20;99.90;;;;;;5077422;28;20088;-76
2022/04/04 09:12:06;;;;;;;7.78;3.58;;;6.20;99.90;;;;;;5110475;28;20502;-78
2022/04/04 09:14:36;;;;;;;6.70;3.10;;;6.30;99.90;;;;;;5110179;28;20078;-80
2022/04/04 09:17:02;;;;;;;12.10;6.85;;;6.20;99.90;;;;;;5110355;28;20035;-76
2022/04/04 09:19:29;;;;;;;19.00;8.60;;;6.30;99.90;;;;;;5111886;28;20039;-79
2022/04/04 09:21:55;;;;;;;17.27;6.72;;;6.30;99.90;;;;;;5110414;28;20474;-81
2022/04/04 09:24:20;;;;;;;15.65;7.85;;;6.30;99.90;;;;;;5093244;28;20136;-79
2022/04/04 09:26:47;;;;;;;12.48;5.43;;;6.60;99.90;;;;;;5110039;28;20071;-77
2022/04/04 09:29:12;;;;;;;10.45;6.90;;;6.60;99.90;;;;;;5110508;28;20069;-76
2022/04/04 09:31:54;;;;;;;7.72;3.72;;;6.70;99.90;;;;;;5095678;28;20040;-79
2022/04/04 09:34:20;;;;;;;6.35;3.13;;;6.30;99.90;;;;;;5106929;27;20043;-79
2022/04/04 09:36:47;;;;;;;9.07;3.67;;;6.40;99.90;;;;;;5117837;27;20054;-79
2022/04/04 09:39:15;;;;;;;5.95;2.90;;;6.40;99.90;;;;;;5134935;27;20082;-76
2022/04/04 09:41:41;;;;;;;8.25;3.63;;;6.40;99.90;;;;;;5147524;27;20059;-77
2022/04/04 09:44:16;;;;;;;7.82;2.83;;;6.40;99.90;;;;;;5120289;27;20062;-79
2022/04/04 09:46:43;;;;;;;7.93;3.22;;;6.40;99.90;;;;;;5138345;27;20042;-79
2022/04/04 09:49:20;;;;;;;6.68;2.85;;;6.50;99.90;;;;;;5121314;27;20431;-78
2022/04/04 09:51:50;;;;;;;3.45;2.40;;;6.50;99.90;;;;;;5120861;27;20455;-77
2022/04/04 09:54:17;;;;;;;6.93;2.55;;;6.60;99.90;;;;;;5138255;27;20373;-79
2022/04/04 09:56:46;;;;;;;6.30;3.03;;;6.70;99.90;;;;;;5120594;27;20121;-79
2022/04/04 09:59:14;;;;;;;10.07;4.35;;;6.60;99.90;;;;;;5109528;28;20039;-77
2022/04/04 10:01:45;;;;;;;7.03;3.20;;;6.60;99.90;;;;;;5085488;27;20096;-79
2022/04/04 10:04:12;;;;;;;7.63;4.43;;;6.70;99.90;;;;;;5117146;27;20398;-78
2022/04/04 10:06:40;;;;;;;6.60;3.15;;;6.80;99.90;;;;;;5117628;27;20038;-77
2022/04/04 10:09:06;;;;;;;4.65;2.72;;;6.80;99.90;;;;;;5116840;27;20055;-76
2022/04/04 10:11:34;;;;;;;5.90;2.90;;;6.70;99.90;;;;;;5099808;27;20031;-78
2022/04/04 10:14:01;;;;;;;6.53;2.63;;;6.70;99.90;;;;;;5116811;27;20102;-78
2022/04/04 10:16:30;;;;;;;5.30;2.55;;;6.70;99.90;;;;;;5100258;27;20509;-77
2022/04/04 10:18:57;;;;;;;5.18;2.25;;;6.80;99.90;;;;;;5117187;27;20039;-79
2022/04/04 10:21:23;;;;;;;7.32;2.90;;;6.80;99.90;;;;;;5100220;27;20043;-77
2022/04/04 10:23:52;;;;;;;7.70;2.58;;;6.80;99.90;;;;;;5117063;27;20078;-78
2022/04/04 10:26:25;;;;;;;3.85;1.85;;;7.00;99.90;;;;;;5099319;27;20035;-79
2022/04/04 10:28:50;;;;;;;5.80;1.85;;;6.80;99.90;;;;;;5099261;27;20097;-79
2022/04/04 10:31:23;;;;;;;8.38;3.60;;;7.00;99.90;;;;;;5101325;28;20124;-78
2022/04/04 10:33:50;;;;;;;3.97;1.75;;;7.10;99.90;;;;;;5100437;27;20051;-78
2022/04/04 10:36:23;;;;;;;2.85;2.00;;;6.90;99.90;;;;;;5120383;27;20095;-76
2022/04/04 10:38:55;;;;;;;5.40;2.90;;;6.90;99.90;;;;;;5120248;27;20043;-77
2022/04/04 10:41:26;;;;;;;4.35;2.30;;;6.90;99.90;;;;;;5154813;27;20054;-79
2022/04/04 10:43:53;;;;;;;5.90;2.92;;;7.00;99.90;;;;;;5136927;27;20126;-79
2022/04/04 10:46:24;;;;;;;5.95;2.75;;;7.50;99.90;;;;;;5120327;27;20122;-79
2022/04/04 10:49:02;;;;;;;9.15;2.42;;;7.00;99.90;;;;;;5155849;27;20037;-80
2022/04/04 10:51:36;;;;;;;8.32;2.70;;;7.00;99.90;;;;;;5136942;27;20046;-79
2022/04/04 10:54:07;;;;;;;4.88;2.75;;;7.10;99.90;;;;;;5136924;27;20047;-77
2022/04/04 10:56:38;;;;;;;4.95;2.33;;;7.00;99.90;;;;;;5119344;27;20103;-77
2022/04/04 10:59:16;;;;;;;4.18;2.15;;;7.20;99.90;;;;;;5124200;27;20421;-79
2022/04/04 11:01:43;;;;;;;4.60;1.85;;;7.20;99.90;;;;;;5078931;28;20505;-79
2022/04/04 11:07:38;;;;;;;3.72;1.23;;;7.10;99.90;;;;;;5101492;27;20490;-77
2022/04/04 11:07:41;;;;;;;2.90;1.10;;;7.30;99.90;;;;;;5001212;28;20523;-79
2022/04/04 11:10:10;;;;;;;2.15;1.10;;;7.20;99.90;;;;;;4998132;28;20048;-78
2022/04/04 11:13:05;;;;;;;2.10;1.08;;;7.20;99.90;;;;;;5014340;28;20056;-79
2022/04/04 11:15:43;;;;;;;3.80;1.60;;;7.20;99.90;;;;;;5030646;28;20148;-80
2022/04/04 11:18:10;;;;;;;3.83;2.38;;;7.30;99.90;;;;;;5014885;28;20045;-79
2022/04/04 11:20:49;;;;;;;1.35;0.90;;;7.20;99.90;;;;;;5014654;28;20041;-81
2022/04/04 11:23:17;;;;;;;5.95;1.50;;;7.30;99.90;;;;;;5031018;28;20065;-80
2022/04/04 11:25:52;;;;;;;3.22;0.90;;;7.40;99.90;;;;;;5003246;28;20080;-80
2022/04/04 11:28:24;;;;;;;3.63;1.00;;;7.30;99.90;;;;;;5014570;28;20048;-77
2022/04/04 11:31:02;;;;;;;3.30;1.38;;;7.30;99.90;;;;;;5019197;28;20267;-80
2022/04/04 11:33:28;;;;;;;1.83;1.20;;;7.30;99.90;;;;;;4995927;28;20050;-78
2022/04/04 11:35:54;;;;;;;2.00;1.00;;;7.40;99.90;;;;;;5031999;28;20060;-79
2022/04/04 11:38:20;;;;;;;1.05;0.57;;;7.50;99.90;;;;;;5034102;28;20175;-78
2022/04/04 11:40:55;;;;;;;2.55;1.00;;;7.70;99.90;;;;;;5049737;28;20056;-78
2022/04/04 11:43:27;;;;;;;1.77;1.08;;;7.60;99.90;;;;;;5051184;28;20044;-79
2022/04/04 11:45:53;;;;;;;1.67;0.90;;;7.60;99.90;;;;;;5094653;28;20130;-78
2022/04/04 11:48:28;;;;;;;2.15;1.35;;;7.70;99.90;;;;;;5129087;27;20123;-80
2022/04/04 11:50:58;;;;;;;1.38;0.65;;;8.00;99.90;;;;;;5095784;28;20122;-81
2022/04/04 11:53:27;;;;;;;2.35;0.77;;;7.70;99.90;;;;;;5111061;28;20420;-80
2022/04/04 11:56:00;;;;;;;2.20;1.00;;;7.60;99.90;;;;;;5098913;28;20047;-76
2022/04/04 11:58:27;;;;;;;1.05;0.90;;;7.50;99.90;;;;;;5110011;28;20044;-79
2022/04/04 12:01:00;;;;;;;1.60;0.80;;;7.60;99.90;;;;;;5070996;28;20055;-80
2022/04/04 12:03:27;;;;;;;2.15;0.77;;;7.70;99.90;;;;;;5054442;28;20119;-79
2022/04/04 12:05:53;;;;;;;3.60;1.30;;;7.60;99.90;;;;;;5062327;28;20064;-78
2022/04/04 12:08:21;;;;;;;3.15;0.85;;;7.70;99.90;;;;;;5074449;28;20126;-78
2022/04/04 12:10:49;;;;;;;4.53;2.78;;;7.80;99.90;;;;;;5074102;28;20036;-79
2022/04/04 12:13:21;;;;;;;3.92;2.25;;;7.70;99.90;;;;;;5093322;28;20136;-81
2022/04/04 12:15:53;;;;;;;1.85;1.20;;;7.80;99.90;;;;;;5077734;28;20139;-79
2022/04/04 12:18:23;;;;;;;1.25;0.75;;;7.80;99.90;;;;;;5078262;28;20119;-80
2022/04/04 12:20:51;;;;;;;2.90;1.27;;;7.80;99.90;;;;;;5075444;28;20450;-77
2022/04/04 12:26:09;;;;;;;3.72;0.77;;;7.90;99.90;;;;;;5090357;28;20052;-82
2022/04/04 12:28:37;;;;;;;2.05;1.33;;;7.90;99.90;;;;;;5073314;28;20042;-79
2022/04/04 12:31:14;;;;;;;5.45;1.20;;;8.20;99.90;;;;;;5070612;28;20122;-82
2022/04/04 12:33:41;;;;;;;1.30;1.20;;;8.10;99.90;;;;;;5071023;28;20052;-80
2022/04/04 12:36:07;;;;;;;1.85;0.80;;;8.10;99.90;;;;;;5090758;28;20083;-81
2022/04/04 12:38:41;;;;;;;4.88;4.22;;;8.20;99.90;;;;;;5073798;28;20051;-80
2022/04/04 12:41:13;;;;;;;5.05;4.00;;;8.20;99.90;;;;;;5094924;28;20371;-80
2022/04/04 12:43:41;;;;;;;3.80;3.10;;;8.30;99.90;;;;;;5093390;28;20047;-79
2022/04/04 12:46:21;;;;;;;0.90;0.90;;;8.30;99.90;;;;;;5110791;28;20047;-80
2022/04/04 12:48:46;;;;;;;0.95;0.90;;;8.30;99.90;;;;;;5112189;28;20044;-79
2022/04/04 12:51:31;;;;;;;3.58;1.90;;;9.00;99.90;;;;;;5112008;28;20088;-82
2022/04/04 12:54:00;;;;;;;11.52;6.72;;;8.30;99.90;;;;;;5093659;28;20136;-81